Time;durP1;ratioP1;P1;durP2;ratioP2;P2;SDS_P1;SDS_P2;PMS_P1;PMS_P2;Temp;Humidity;BMP_temperature;BMP_pressure;BME280_temperature;BME280_humidity;BME280_pressure;Samples;Min_cycle;Max_cycle;Signal;HPM_P1;HPM_P2
2021/05/04 00:00:07;;;;;;;3.70;3.40;;;6.70;99.90;;;;;;5035929;28;20281;-74
2021/05/04 00:02:33;;;;;;;4.27;3.40;;;6.60;99.90;;;;;;5048697;28;20201;-74
2021/05/04 00:04:59;;;;;;;4.23;3.53;;;6.60;99.90;;;;;;5047756;28;20233;-74
2021/05/04 00:07:24;;;;;;;7.40;3.53;;;6.60;99.90;;;;;;5032972;28;20236;-74
2021/05/04 00:09:50;;;;;;;3.77;3.40;;;6.50;99.90;;;;;;5044389;28;20173;-74
2021/05/04 00:12:16;;;;;;;5.00;3.40;;;6.40;99.90;;;;;;5053217;28;20220;-74
2021/05/04 00:14:42;;;;;;;5.30;3.67;;;6.30;99.90;;;;;;5051450;28;20251;-74
2021/05/04 00:17:08;;;;;;;3.43;3.23;;;6.20;99.90;;;;;;5052743;28;20578;-74
2021/05/04 00:19:33;;;;;;;3.60;3.30;;;6.20;99.90;;;;;;5050408;28;20239;-74
2021/05/04 00:21:59;;;;;;;3.77;3.47;;;6.10;99.90;;;;;;5052568;28;20586;-74
2021/05/04 00:24:25;;;;;;;3.63;3.40;;;6.10;99.90;;;;;;5051941;28;20617;-73
2021/05/04 00:26:51;;;;;;;3.83;3.50;;;6.10;99.90;;;;;;5054001;28;20177;-74
2021/05/04 00:29:17;;;;;;;3.70;3.40;;;6.00;99.90;;;;;;5051813;28;20174;-73
2021/05/04 00:31:43;;;;;;;4.27;3.03;;;6.00;99.90;;;;;;5075992;23;20229;-74
2021/05/04 00:34:09;;;;;;;3.90;3.50;;;5.90;99.90;;;;;;5071751;28;20165;-74
2021/05/04 00:36:35;;;;;;;3.67;3.37;;;6.00;99.90;;;;;;5071368;28;20251;-74
2021/05/04 00:39:01;;;;;;;4.33;3.87;;;5.90;99.90;;;;;;5071091;28;20176;-74
2021/05/04 00:41:27;;;;;;;3.50;3.20;;;5.80;99.90;;;;;;5071313;28;20207;-74
2021/05/04 00:43:52;;;;;;;3.90;3.60;;;5.70;99.90;;;;;;5072190;28;20191;-74
2021/05/04 00:46:18;;;;;;;4.00;3.70;;;5.60;99.90;;;;;;5071038;28;20169;-74
2021/05/04 00:48:45;;;;;;;4.10;3.80;;;5.60;99.90;;;;;;5071016;28;20176;-74
2021/05/04 00:51:11;;;;;;;4.17;3.83;;;5.60;99.90;;;;;;5070768;28;20200;-74
2021/05/04 00:53:37;;;;;;;3.80;3.50;;;5.60;99.90;;;;;;5070545;28;20184;-74
2021/05/04 00:56:03;;;;;;;3.80;3.50;;;5.60;99.90;;;;;;5070728;28;20539;-74
2021/05/04 00:58:34;;;;;;;4.97;4.00;;;5.50;99.90;;;;;;5071515;28;20211;-74
2021/05/04 01:01:00;;;;;;;4.43;3.47;;;5.60;99.90;;;;;;5070553;28;20210;-74
2021/05/04 01:03:27;;;;;;;4.50;3.93;;;5.70;99.90;;;;;;5072236;28;20508;-73
2021/05/04 01:05:52;;;;;;;4.50;4.10;;;5.70;99.90;;;;;;5070641;28;20203;-74
2021/05/04 01:08:18;;;;;;;4.10;3.80;;;5.70;99.90;;;;;;5070647;28;20215;-74
2021/05/04 01:10:44;;;;;;;4.17;3.77;;;5.70;99.90;;;;;;5056749;28;20169;-74
2021/05/04 01:13:09;;;;;;;4.40;4.10;;;5.70;99.90;;;;;;5070391;28;20173;-74
2021/05/04 01:15:35;;;;;;;4.27;3.97;;;5.80;99.90;;;;;;5070425;28;20631;-74
2021/05/04 01:18:01;;;;;;;4.30;3.87;;;5.70;99.90;;;;;;5070276;28;20208;-74
2021/05/04 01:20:28;;;;;;;3.67;3.40;;;5.70;99.90;;;;;;5071566;28;20199;-74
2021/05/04 01:22:54;;;;;;;4.20;3.80;;;5.40;99.90;;;;;;5070206;28;20192;-74
2021/05/04 01:25:20;;;;;;;3.87;3.57;;;5.30;99.90;;;;;;5070123;28;20179;-74
2021/05/04 01:27:46;;;;;;;4.23;3.93;;;5.20;99.90;;;;;;5070286;28;20182;-74
2021/05/04 01:30:12;;;;;;;4.93;4.50;;;5.20;99.90;;;;;;5070251;28;20179;-74
2021/05/04 01:32:38;;;;;;;4.10;3.80;;;5.20;99.90;;;;;;5035134;28;644114;-74
2021/05/04 01:35:07;;;;;;;4.13;3.80;;;5.20;99.90;;;;;;5042071;28;20650;-74
2021/05/04 01:37:33;;;;;;;4.10;3.80;;;5.20;99.90;;;;;;5041658;28;20233;-73
2021/05/04 01:39:58;;;;;;;4.30;4.00;;;5.20;99.90;;;;;;5038515;28;20590;-73
2021/05/04 01:42:24;;;;;;;4.20;3.90;;;5.20;99.90;;;;;;5040271;28;20218;-74
2021/05/04 01:44:50;;;;;;;4.77;4.23;;;5.20;99.90;;;;;;5033414;28;20559;-73
2021/05/04 01:47:16;;;;;;;3.90;3.60;;;5.20;99.90;;;;;;5039767;28;20527;-74
2021/05/04 01:49:42;;;;;;;4.13;3.80;;;5.30;99.90;;;;;;5041973;28;20245;-74
2021/05/04 01:52:10;;;;;;;3.87;3.57;;;5.30;99.90;;;;;;5037451;28;20361;-74
2021/05/04 01:54:36;;;;;;;4.30;3.90;;;5.20;99.90;;;;;;5039446;28;20185;-74
2021/05/04 01:57:03;;;;;;;4.10;3.80;;;5.20;99.90;;;;;;5046825;28;20219;-74
2021/05/04 01:59:29;;;;;;;4.17;3.87;;;5.20;99.90;;;;;;5050953;28;20203;-74
2021/05/04 02:01:56;;;;;;;4.00;3.70;;;5.20;99.90;;;;;;5050849;28;20193;-74
2021/05/04 02:04:23;;;;;;;4.97;4.00;;;5.20;99.90;;;;;;5049556;28;20179;-74
2021/05/04 02:06:48;;;;;;;4.07;3.77;;;5.10;99.90;;;;;;5050737;28;20247;-74
2021/05/04 02:09:14;;;;;;;4.57;4.27;;;5.20;99.90;;;;;;5046906;28;20307;-75
2021/05/04 02:11:40;;;;;;;4.20;3.90;;;5.00;99.90;;;;;;5053098;28;20204;-74
2021/05/04 02:14:06;;;;;;;4.23;3.90;;;5.20;99.90;;;;;;5051856;28;20189;-74
2021/05/04 02:16:33;;;;;;;3.97;3.63;;;5.20;99.90;;;;;;5051639;28;20188;-74
2021/05/04 02:18:59;;;;;;;4.90;4.30;;;5.20;99.90;;;;;;5051483;28;20210;-74
2021/05/04 02:21:24;;;;;;;4.37;3.77;;;5.30;99.90;;;;;;5052566;28;20208;-74
2021/05/04 02:23:51;;;;;;;4.47;4.07;;;5.30;99.90;;;;;;5053151;28;20180;-73
2021/05/04 02:26:17;;;;;;;4.40;4.00;;;5.30;99.90;;;;;;5052927;28;20558;-74
2021/05/04 02:28:44;;;;;;;4.23;3.93;;;5.30;99.90;;;;;;5051084;28;20184;-74
2021/05/04 02:31:11;;;;;;;4.27;3.97;;;5.30;99.90;;;;;;5052523;28;20248;-74
2021/05/04 02:33:38;;;;;;;4.60;4.13;;;5.30;99.90;;;;;;5052956;28;20210;-75
2021/05/04 02:36:05;;;;;;;4.20;3.90;;;5.30;99.90;;;;;;5052977;28;20177;-74
2021/05/04 02:38:32;;;;;;;5.10;3.93;;;5.30;99.90;;;;;;5052607;28;20227;-74
2021/05/04 02:41:01;;;;;;;4.47;4.07;;;5.30;99.90;;;;;;5052434;28;20241;-74
2021/05/04 02:43:28;;;;;;;4.27;3.97;;;5.30;99.90;;;;;;5052863;28;20230;-74
2021/05/04 02:45:54;;;;;;;4.13;3.83;;;5.30;99.90;;;;;;5052507;28;20177;-74
2021/05/04 02:48:20;;;;;;;4.50;4.10;;;5.30;99.90;;;;;;5051375;28;20172;-74
2021/05/04 02:50:46;;;;;;;4.93;4.53;;;5.10;99.90;;;;;;5052402;28;20173;-74
2021/05/04 02:53:12;;;;;;;4.67;4.17;;;5.20;99.90;;;;;;5055834;28;20211;-75
2021/05/04 02:55:38;;;;;;;4.47;4.07;;;5.00;99.90;;;;;;5056193;28;20574;-74
2021/05/04 02:58:04;;;;;;;4.40;4.10;;;5.00;99.90;;;;;;5056596;28;20173;-75
2021/05/04 03:00:30;;;;;;;5.50;4.40;;;5.10;99.90;;;;;;5055709;28;20204;-74
2021/05/04 03:02:56;;;;;;;4.77;4.17;;;5.00;99.90;;;;;;5055885;28;20196;-75
2021/05/04 03:05:22;;;;;;;4.50;4.10;;;5.10;99.90;;;;;;5055933;28;20188;-75
2021/05/04 03:07:48;;;;;;;5.77;4.70;;;4.90;99.90;;;;;;5055642;28;20180;-75
2021/05/04 03:10:13;;;;;;;5.07;4.60;;;4.90;99.90;;;;;;5056096;28;20201;-75
2021/05/04 03:12:39;;;;;;;5.43;4.20;;;4.80;99.90;;;;;;5055775;28;20196;-75
2021/05/04 03:15:06;;;;;;;6.30;4.33;;;4.80;99.90;;;;;;5055629;28;20187;-74
2021/05/04 03:17:32;;;;;;;5.20;4.70;;;4.80;99.90;;;;;;5056041;28;20542;-74
2021/05/04 03:19:57;;;;;;;5.83;4.40;;;4.80;99.90;;;;;;5055582;28;20188;-74
2021/05/04 03:22:24;;;;;;;5.70;4.20;;;4.80;99.90;;;;;;5055458;28;20207;-75
2021/05/04 03:24:50;;;;;;;5.20;4.70;;;4.80;99.90;;;;;;5055936;28;20212;-74
2021/05/04 03:27:16;;;;;;;6.20;4.30;;;4.80;99.90;;;;;;5054325;28;20167;-75
2021/05/04 03:29:43;;;;;;;5.10;4.67;;;4.80;99.90;;;;;;5055666;28;20360;-75
2021/05/04 03:32:08;;;;;;;4.50;4.10;;;4.70;99.90;;;;;;5053911;28;20245;-74
2021/05/04 03:34:35;;;;;;;5.37;4.97;;;4.70;99.90;;;;;;5055733;28;20189;-75
2021/05/04 03:37:01;;;;;;;5.47;5.07;;;4.60;99.90;;;;;;5054202;28;20543;-75
2021/05/04 03:39:26;;;;;;;5.60;5.10;;;4.40;99.90;;;;;;5050437;28;20195;-75
2021/05/04 03:41:52;;;;;;;6.53;5.70;;;4.30;99.90;;;;;;5048318;28;20202;-75
2021/05/04 03:44:18;;;;;;;5.53;5.10;;;4.40;99.90;;;;;;5055009;28;20181;-74
2021/05/04 03:46:43;;;;;;;4.87;4.47;;;4.40;99.90;;;;;;5055431;28;20257;-75
2021/05/04 03:49:10;;;;;;;4.80;4.40;;;4.50;99.90;;;;;;5055391;28;20178;-75
2021/05/04 03:51:36;;;;;;;6.07;5.47;;;4.50;99.90;;;;;;5055399;28;20325;-75
2021/05/04 03:54:03;;;;;;;7.00;5.90;;;4.50;99.90;;;;;;5053774;28;20178;-75
2021/05/04 03:56:29;;;;;;;5.53;5.13;;;4.40;99.90;;;;;;5053838;28;20183;-75
2021/05/04 03:58:55;;;;;;;5.83;5.33;;;4.40;99.90;;;;;;5053762;28;20180;-74
2021/05/04 04:01:20;;;;;;;6.17;5.43;;;4.40;99.90;;;;;;5049115;28;20207;-75
2021/05/04 04:03:48;;;;;;;6.07;5.57;;;4.40;99.90;;;;;;5051783;28;20624;-74
2021/05/04 04:06:15;;;;;;;7.17;5.63;;;4.40;99.90;;;;;;5046633;28;20598;-75
2021/05/04 04:08:41;;;;;;;6.57;5.97;;;4.40;99.90;;;;;;5053711;28;20186;-75
2021/05/04 04:11:06;;;;;;;6.30;5.80;;;4.30;99.90;;;;;;5051578;28;20292;-74
2021/05/04 04:13:33;;;;;;;7.77;6.27;;;4.30;99.90;;;;;;5049770;28;20282;-75
2021/05/04 04:15:59;;;;;;;6.80;6.20;;;4.30;99.90;;;;;;5049739;28;20176;-75
2021/05/04 04:18:25;;;;;;;6.13;5.47;;;4.50;99.90;;;;;;5052163;28;20174;-75
2021/05/04 04:20:52;;;;;;;8.00;6.40;;;4.30;99.90;;;;;;5052382;28;20190;-75
2021/05/04 04:23:18;;;;;;;7.27;6.13;;;4.20;99.90;;;;;;5052478;28;20233;-75
2021/05/04 04:25:43;;;;;;;6.83;5.87;;;4.30;99.90;;;;;;5052790;28;20230;-75
2021/05/04 04:28:09;;;;;;;7.13;5.93;;;4.30;99.90;;;;;;5053327;28;20576;-74
2021/05/04 04:30:36;;;;;;;7.10;6.50;;;4.30;99.90;;;;;;5054611;28;20221;-74
2021/05/04 04:33:01;;;;;;;6.73;5.90;;;4.30;99.90;;;;;;5054407;28;20211;-75
2021/05/04 04:35:27;;;;;;;7.07;6.47;;;4.30;99.90;;;;;;5054239;28;20547;-75
2021/05/04 04:37:53;;;;;;;7.20;6.50;;;4.30;99.90;;;;;;5054378;28;20174;-75
2021/05/04 04:40:19;;;;;;;6.60;6.00;;;4.20;99.90;;;;;;5054187;28;20225;-75
2021/05/04 04:42:44;;;;;;;6.73;6.03;;;4.40;99.90;;;;;;5053866;28;20216;-73
2021/05/04 04:45:11;;;;;;;7.20;6.60;;;4.40;99.90;;;;;;5053170;28;20235;-74
2021/05/04 04:47:37;;;;;;;6.97;6.37;;;4.40;99.90;;;;;;5050766;28;20178;-73
2021/05/04 04:50:03;;;;;;;7.07;6.43;;;4.50;99.90;;;;;;5052416;28;20181;-74
2021/05/04 04:52:29;;;;;;;7.30;6.60;;;4.50;99.90;;;;;;5053639;28;20205;-73
2021/05/04 04:54:55;;;;;;;6.33;5.83;;;4.50;99.90;;;;;;5050487;28;20188;-74
2021/05/04 04:57:21;;;;;;;8.00;6.70;;;4.60;99.90;;;;;;5074084;28;20264;-74
2021/05/04 04:59:49;;;;;;;7.23;6.50;;;4.60;99.90;;;;;;5063557;28;20195;-74
2021/05/04 05:02:15;;;;;;;7.00;6.30;;;4.70;99.90;;;;;;5058466;28;20198;-73
2021/05/04 05:04:40;;;;;;;8.37;6.17;;;4.80;99.90;;;;;;5051924;28;20175;-73
2021/05/04 05:07:08;;;;;;;6.47;5.77;;;4.70;99.90;;;;;;5054009;28;20601;-74
2021/05/04 05:09:35;;;;;;;7.17;6.47;;;4.70;99.90;;;;;;5052567;28;20178;-74
2021/05/04 05:12:03;;;;;;;6.20;5.70;;;4.80;99.90;;;;;;5052400;28;20199;-74
2021/05/04 05:14:28;;;;;;;8.07;7.33;;;4.80;99.90;;;;;;5049031;28;20188;-73
2021/05/04 05:16:54;;;;;;;7.77;7.07;;;4.80;99.90;;;;;;5053548;28;20226;-73
2021/05/04 05:19:20;;;;;;;6.80;6.10;;;4.80;99.90;;;;;;5053726;28;20203;-73
2021/05/04 05:21:46;;;;;;;7.13;6.53;;;4.80;99.90;;;;;;5053399;28;20196;-74
2021/05/04 05:24:12;;;;;;;10.03;6.80;;;4.90;99.90;;;;;;5053442;28;20182;-74
2021/05/04 05:26:40;;;;;;;7.77;6.77;;;5.00;99.90;;;;;;5053379;28;20633;-74
2021/05/04 05:29:06;;;;;;;7.47;6.77;;;5.10;99.90;;;;;;5053085;28;20181;-74
2021/05/04 05:31:34;;;;;;;7.77;7.07;;;5.20;99.90;;;;;;5048971;28;20674;-74
2021/05/04 05:34:00;;;;;;;7.63;6.93;;;5.30;99.90;;;;;;5049049;28;20177;-73
2021/05/04 05:36:26;;;;;;;9.27;7.33;;;5.40;99.90;;;;;;5053232;28;20177;-73
2021/05/04 05:38:52;;;;;;;8.00;7.30;;;5.50;99.90;;;;;;5050041;28;20253;-74
2021/05/04 05:41:18;;;;;;;8.10;7.30;;;5.60;99.90;;;;;;5049684;28;20204;-74
2021/05/04 05:43:44;;;;;;;7.63;7.03;;;5.70;99.90;;;;;;5052557;28;20246;-74
2021/05/04 05:46:10;;;;;;;7.73;7.13;;;5.80;99.90;;;;;;5053380;28;20169;-74
2021/05/04 05:48:36;;;;;;;7.87;7.17;;;6.00;99.90;;;;;;5050168;28;20595;-74
2021/05/04 05:51:02;;;;;;;9.17;7.80;;;6.10;99.90;;;;;;5052294;28;20193;-74
2021/05/04 05:53:27;;;;;;;7.70;6.93;;;6.20;99.90;;;;;;5052453;28;20631;-74
2021/05/04 05:55:53;;;;;;;13.43;7.00;;;6.30;99.90;;;;;;5052841;28;20231;-74
2021/05/04 05:58:19;;;;;;;7.87;7.27;;;6.40;99.90;;;;;;5053235;28;20177;-74
2021/05/04 06:00:45;;;;;;;7.83;7.23;;;6.50;99.90;;;;;;5052829;28;20197;-74
2021/05/04 06:03:11;;;;;;;6.47;5.87;;;6.60;99.90;;;;;;5050895;28;20196;-75
2021/05/04 06:05:37;;;;;;;4.77;4.37;;;6.70;99.90;;;;;;5052962;28;20616;-74
2021/05/04 06:08:03;;;;;;;4.90;4.40;;;6.90;99.90;;;;;;5050778;28;20561;-74
2021/05/04 06:10:30;;;;;;;6.47;4.50;;;7.00;99.90;;;;;;5048611;28;20270;-75
2021/05/04 06:12:58;;;;;;;4.17;3.80;;;7.10;99.90;;;;;;5065502;28;20529;-74
2021/05/04 06:15:23;;;;;;;4.37;4.07;;;7.20;99.90;;;;;;5072859;28;20187;-74
2021/05/04 06:17:49;;;;;;;4.80;4.40;;;7.30;99.90;;;;;;5072749;28;20186;-74
2021/05/04 06:20:16;;;;;;;4.23;3.93;;;7.40;99.90;;;;;;5072785;28;20181;-74
2021/05/04 06:22:41;;;;;;;5.20;4.20;;;7.50;99.90;;;;;;5065085;28;20194;-74
2021/05/04 06:25:07;;;;;;;6.63;4.03;;;7.50;99.90;;;;;;5050758;28;20269;-74
2021/05/04 06:27:33;;;;;;;4.83;3.90;;;7.60;99.90;;;;;;5051711;28;20184;-74
2021/05/04 06:29:59;;;;;;;4.47;4.07;;;7.70;99.90;;;;;;5055604;28;20177;-74
2021/05/04 06:32:26;;;;;;;4.37;4.00;;;7.80;99.90;;;;;;5080861;22;20225;-73
2021/05/04 06:34:52;;;;;;;4.63;4.33;;;7.80;99.90;;;;;;5053261;28;20174;-74
2021/05/04 06:37:18;;;;;;;4.40;4.10;;;7.90;99.90;;;;;;5056733;28;20627;-73
2021/05/04 06:39:44;;;;;;;4.27;3.97;;;8.00;99.90;;;;;;5056162;28;20557;-73
2021/05/04 06:42:10;;;;;;;3.83;3.50;;;8.10;99.90;;;;;;5055912;28;20193;-73
2021/05/04 06:44:37;;;;;;;4.17;3.87;;;8.10;99.90;;;;;;5054867;28;20198;-73
2021/05/04 06:47:03;;;;;;;3.87;3.57;;;8.20;99.90;;;;;;5054898;28;20185;-74
2021/05/04 06:49:31;;;;;;;3.97;3.67;;;8.30;99.90;;;;;;5055843;28;20253;-73
2021/05/04 06:51:56;;;;;;;5.47;3.40;;;8.30;99.90;;;;;;5054336;28;20645;-73
2021/05/04 06:54:22;;;;;;;3.80;3.50;;;8.40;99.90;;;;;;5055678;28;20257;-73
2021/05/04 06:56:48;;;;;;;3.60;3.40;;;8.60;99.90;;;;;;5053549;28;20178;-73
2021/05/04 06:59:14;;;;;;;3.50;3.20;;;8.70;99.90;;;;;;5054417;28;20636;-73
2021/05/04 07:01:40;;;;;;;3.80;3.50;;;8.80;99.90;;;;;;5050536;28;20193;-74
2021/05/04 07:04:06;;;;;;;3.50;3.07;;;8.90;99.90;;;;;;5041978;28;20177;-72
2021/05/04 07:06:32;;;;;;;3.97;3.67;;;8.90;99.90;;;;;;5051081;28;20181;-72
2021/05/04 07:08:58;;;;;;;6.27;3.57;;;9.00;99.90;;;;;;5044589;28;20566;-73
2021/05/04 07:11:24;;;;;;;3.80;3.50;;;9.10;99.90;;;;;;5046704;28;20685;-73
2021/05/04 07:13:50;;;;;;;4.17;3.37;;;9.20;99.90;;;;;;5047174;28;20538;-73
2021/05/04 07:16:15;;;;;;;4.40;3.17;;;9.20;99.90;;;;;;5047319;28;20585;-73
2021/05/04 07:18:42;;;;;;;4.00;3.67;;;9.30;99.90;;;;;;5040534;28;20178;-73
2021/05/04 07:21:09;;;;;;;3.70;3.40;;;9.40;99.90;;;;;;5051440;28;20192;-73
2021/05/04 07:23:36;;;;;;;5.90;3.30;;;9.50;99.90;;;;;;5048880;28;20192;-72
2021/05/04 07:26:03;;;;;;;3.37;3.17;;;9.60;99.90;;;;;;5048229;28;20180;-72
2021/05/04 07:28:29;;;;;;;3.87;3.57;;;9.70;99.90;;;;;;5048990;28;20181;-73
2021/05/04 07:30:56;;;;;;;3.57;3.27;;;9.80;99.90;;;;;;5052065;28;20573;-73
2021/05/04 07:33:21;;;;;;;3.27;3.07;;;9.90;99.90;;;;;;5047670;28;20214;-72
2021/05/04 07:35:48;;;;;;;3.30;3.00;;;10.00;99.90;;;;;;5046566;28;20645;-73
2021/05/04 07:38:15;;;;;;;5.70;3.70;;;10.10;99.90;;;;;;5045973;28;20603;-73
2021/05/04 07:40:40;;;;;;;7.33;3.00;;;10.20;99.90;;;;;;5047110;28;20222;-73
2021/05/04 07:43:06;;;;;;;3.30;3.00;;;10.30;99.90;;;;;;5050063;28;20188;-72
2021/05/04 07:45:32;;;;;;;3.30;3.00;;;10.30;99.90;;;;;;5044214;28;20200;-73
2021/05/04 07:47:59;;;;;;;3.90;3.10;;;10.40;99.90;;;;;;5043385;28;20600;-74
2021/05/04 07:50:26;;;;;;;3.90;3.20;;;10.50;99.90;;;;;;5049896;28;20701;-73
2021/05/04 07:52:55;;;;;;;3.80;2.97;;;10.60;99.90;;;;;;5050520;28;20200;-73
2021/05/04 07:55:21;;;;;;;3.10;2.90;;;10.60;99.90;;;;;;5045595;28;20559;-74
2021/05/04 08:15:51;;;;;;;3.93;2.67;;;11.40;99.90;;;;;;5023163;28;20235;-74
2021/05/04 08:20:54;;;;;;;3.77;2.50;;;11.70;99.90;;;;;;5958027;22;20654;-72
2021/05/04 08:23:24;;;;;;;2.90;2.50;;;11.80;99.90;;;;;;5042860;28;20279;-73
2021/05/04 08:25:50;;;;;;;2.40;2.20;;;12.00;99.90;;;;;;5051195;28;20176;-72
2021/05/04 08:36:39;;;;;;;4.50;2.00;;;12.70;99.90;;;;;;5837657;22;20603;-75
2021/05/04 08:39:05;;;;;;;2.70;1.90;;;13.00;99.90;;;;;;5063138;28;20646;-75
2021/05/04 08:41:34;;;;;;;5.00;1.87;;;13.20;99.90;;;;;;5070235;28;20193;-74
2021/05/04 08:43:59;;;;;;;3.73;1.83;;;13.40;99.90;;;;;;5066757;28;20178;-75
2021/05/04 08:46:26;;;;;;;3.40;2.27;;;13.60;99.90;;;;;;5060928;28;20215;-74
2021/05/04 08:48:52;;;;;;;3.60;1.67;;;13.70;99.90;;;;;;5086518;22;20220;-75
2021/05/04 08:51:18;;;;;;;2.60;1.80;;;13.80;99.90;;;;;;5035829;28;20182;-76
2021/05/04 08:53:45;;;;;;;2.03;1.60;;;13.90;99.90;;;;;;5036227;28;20224;-75
2021/05/04 08:56:14;;;;;;;2.60;1.80;;;14.10;99.90;;;;;;5035715;28;20271;-75
2021/05/04 08:58:41;;;;;;;2.10;1.50;;;14.30;99.90;;;;;;5034679;28;20206;-75
2021/05/04 09:01:07;;;;;;;2.43;1.43;;;14.50;99.90;;;;;;5043491;28;20292;-76
2021/05/04 09:03:56;;;;;;;4.30;1.50;;;14.50;99.90;;;;;;5036634;28;20265;-75
2021/05/04 09:06:40;;;;;;;10.83;1.70;;;14.70;99.90;;;;;;5036281;28;20188;-75
2021/05/04 09:22:10;;;;;;;5.67;1.70;;;15.40;99.90;;;;;;5053364;28;20177;-75
2021/05/04 09:24:45;;;;;;;2.63;1.20;;;15.40;99.90;;;;;;5051678;28;20173;-75
2021/05/04 09:27:17;;;;;;;1.60;1.47;;;15.60;99.90;;;;;;5051347;28;20170;-75
2021/05/04 09:29:59;;;;;;;3.83;1.30;;;15.50;99.90;;;;;;5052907;28;20201;-75
2021/05/04 09:32:33;;;;;;;7.60;1.90;;;15.60;99.90;;;;;;5050011;28;20671;-75
2021/05/04 09:35:08;;;;;;;3.37;1.50;;;15.60;99.90;;;;;;5053117;28;20223;-75
2021/05/04 09:37:37;;;;;;;8.33;1.73;;;15.50;99.90;;;;;;5052747;28;20178;-75
2021/05/04 09:40:28;;;;;;;6.30;1.53;;;15.60;99.90;;;;;;5052167;28;20197;-75
2021/05/04 09:43:23;;;;;;;9.30;1.77;;;15.40;99.90;;;;;;5053310;28;20176;-75
2021/05/04 09:45:50;;;;;;;3.53;1.63;;;15.40;99.90;;;;;;5052990;28;20614;-75
2021/05/04 09:48:24;;;;;;;3.33;1.40;;;15.40;99.90;;;;;;5050754;28;20223;-75
2021/05/04 09:50:58;;;;;;;3.43;1.90;;;15.40;99.90;;;;;;5052358;28;20220;-75
2021/05/04 09:53:38;;;;;;;4.17;1.40;;;15.40;99.90;;;;;;5052862;28;20517;-75
2021/05/04 09:56:04;;;;;;;1.43;1.30;;;15.40;99.90;;;;;;5052790;28;20178;-75
2021/05/04 09:58:35;;;;;;;2.73;1.40;;;15.40;99.90;;;;;;5053225;28;20181;-75
2021/05/04 10:01:20;;;;;;;5.93;1.67;;;15.40;99.90;;;;;;5053228;28;20236;-75
2021/05/04 10:03:49;;;;;;;5.20;1.87;;;15.40;99.90;;;;;;5057226;28;20200;-75
2021/05/04 10:06:17;;;;;;;1.97;1.50;;;15.40;99.90;;;;;;5056010;28;20182;-75
2021/05/04 10:08:44;;;;;;;4.47;1.33;;;15.40;99.90;;;;;;5057428;28;20181;-75
2021/05/04 10:11:12;;;;;;;2.00;1.43;;;15.50;99.90;;;;;;5058561;28;20666;-75
2021/05/04 10:13:39;;;;;;;6.07;2.20;;;15.60;99.90;;;;;;5055729;28;20169;-75
2021/05/04 10:16:06;;;;;;;5.77;1.40;;;15.70;99.90;;;;;;5055688;28;20173;-75
2021/05/04 10:18:32;;;;;;;5.53;1.63;;;15.80;99.90;;;;;;5056632;28;20180;-75
2021/05/04 10:21:01;;;;;;;11.00;1.60;;;15.90;99.90;;;;;;5052810;28;20193;-75
2021/05/04 10:23:46;;;;;;;4.47;1.53;;;16.00;99.90;;;;;;5055304;28;20182;-75
2021/05/04 10:26:17;;;;;;;3.37;1.33;;;16.00;99.90;;;;;;5054536;28;20189;-75
2021/05/04 10:28:50;;;;;;;2.70;1.53;;;15.90;99.90;;;;;;5056760;28;20253;-75
2021/05/04 10:31:17;;;;;;;3.70;1.60;;;16.00;99.90;;;;;;5056068;28;20174;-76
2021/05/04 10:33:44;;;;;;;4.63;1.40;;;16.10;99.90;;;;;;5056795;28;20177;-76
2021/05/04 10:36:35;;;;;;;2.80;1.70;;;16.10;99.90;;;;;;5056646;28;20170;-76
2021/05/04 10:39:02;;;;;;;3.70;1.43;;;16.20;99.90;;;;;;5056482;28;20204;-75
2021/05/04 10:41:28;;;;;;;4.23;1.60;;;;;;;;;;5042629;28;20640;-75
2021/05/04 10:44:02;;;;;;;1.83;1.50;;;;;;;;;;5047945;28;20239;-75
2021/05/04 10:46:38;;;;;;;1.53;1.20;;;;;;;;;;5046180;28;20179;-75
2021/05/04 10:49:05;;;;;;;3.83;1.67;;;;;;;;;;5048313;28;20228;-76
2021/05/04 10:51:51;;;;;;;3.60;1.57;;;;;;;;;;5050741;28;20261;-75
2021/05/04 10:54:54;;;;;;;2.43;1.30;;;16.30;99.90;;;;;;5046907;28;20181;-75
2021/05/04 10:57:20;;;;;;;3.20;1.70;;;16.30;99.90;;;;;;5047362;28;20315;-75
2021/05/04 10:59:46;;;;;;;2.43;1.60;;;16.30;99.90;;;;;;5041594;28;20297;-76
2021/05/04 11:02:15;;;;;;;3.20;1.53;;;16.30;99.90;;;;;;5049118;28;20256;-76
2021/05/04 11:04:42;;;;;;;1.97;1.60;;;16.30;99.90;;;;;;5052555;28;20174;-75
2021/05/04 11:07:08;;;;;;;3.70;1.40;;;16.30;99.90;;;;;;5053611;28;20185;-75
2021/05/04 11:09:39;;;;;;;1.50;1.40;;;16.30;99.90;;;;;;5050318;28;20205;-76
2021/05/04 11:12:08;;;;;;;1.70;1.60;;;16.40;99.90;;;;;;5046884;28;20185;-76
2021/05/04 11:14:37;;;;;;;2.17;1.40;;;16.40;99.90;;;;;;5048497;28;20709;-76
2021/05/04 11:17:08;;;;;;;3.30;1.53;;;16.40;99.90;;;;;;5046351;28;20175;-75
2021/05/04 11:19:39;;;;;;;5.80;1.70;;;16.30;99.90;;;;;;5051202;28;20206;-75
2021/05/04 11:22:07;;;;;;;5.20;1.80;;;16.20;99.90;;;;;;5048449;28;20253;-75
2021/05/04 11:24:34;;;;;;;3.63;1.60;;;16.20;99.90;;;;;;5041324;28;20181;-75
2021/05/04 11:27:00;;;;;;;5.20;1.77;;;16.10;99.90;;;;;;5046656;28;20595;-76
2021/05/04 11:29:32;;;;;;;1.93;1.80;;;16.20;99.90;;;;;;5048415;28;20285;-75
2021/05/04 11:32:21;;;;;;;3.63;1.70;;;16.30;99.90;;;;;;5048260;28;20253;-75
2021/05/04 11:34:58;;;;;;;2.37;1.50;;;16.40;99.90;;;;;;5061107;28;20175;-75
2021/05/04 11:37:24;;;;;;;4.30;1.50;;;16.40;99.90;;;;;;5050580;28;20657;-76
2021/05/04 11:39:57;;;;;;;5.93;1.90;;;16.40;99.90;;;;;;5050146;28;20253;-75
2021/05/04 11:42:26;;;;;;;2.50;1.57;;;16.50;99.90;;;;;;5046593;28;20174;-75
2021/05/04 11:44:52;;;;;;;2.47;1.37;;;16.40;99.90;;;;;;5041646;28;20336;-75
2021/05/04 11:47:26;;;;;;;4.37;1.70;;;16.30;99.90;;;;;;5046397;28;20174;-76
2021/05/04 11:50:08;;;;;;;6.37;1.40;;;16.30;99.90;;;;;;5039079;28;20256;-76
2021/05/04 11:52:35;;;;;;;4.17;1.20;;;16.30;99.90;;;;;;5047578;28;20189;-76
2021/05/04 11:55:09;;;;;;;3.10;1.33;;;16.40;99.90;;;;;;5045668;28;20183;-76
2021/05/04 11:57:36;;;;;;;5.53;1.47;;;16.50;99.90;;;;;;5042511;28;20185;-75
2021/05/04 12:00:05;;;;;;;1.73;1.20;;;16.50;99.90;;;;;;5038809;28;20566;-75
2021/05/04 12:02:32;;;;;;;2.10;1.50;;;16.50;99.90;;;;;;5045568;28;20182;-74
2021/05/04 12:04:59;;;;;;;4.77;1.50;;;16.50;99.90;;;;;;5049125;28;20180;-74
2021/05/04 12:07:32;;;;;;;2.50;1.20;;;16.50;99.90;;;;;;5046590;28;20175;-78
2021/05/04 12:09:58;;;;;;;3.33;1.40;;;16.60;99.90;;;;;;5051426;28;20204;-77
2021/05/04 12:12:24;;;;;;;1.97;1.67;;;16.80;99.90;;;;;;5047880;28;20178;-78
2021/05/04 12:14:59;;;;;;;1.23;1.10;;;16.90;99.90;;;;;;5047114;28;20236;-78
2021/05/04 12:17:28;;;;;;;4.97;1.50;;;17.00;99.90;;;;;;5046418;28;20617;-78
2021/05/04 12:20:17;;;;;;;2.57;1.07;;;17.10;99.90;;;;;;5047480;28;20200;-78
2021/05/04 12:22:51;;;;;;;2.50;1.80;;;17.20;99.90;;;;;;5043908;28;20186;-79
2021/05/04 12:25:27;;;;;;;2.47;1.33;;;17.20;98.90;;;;;;5042421;28;20186;-77
2021/05/04 12:27:53;;;;;;;6.23;1.30;;;17.20;99.50;;;;;;5046637;28;20606;-77
2021/05/04 12:30:21;;;;;;;1.83;1.30;;;17.20;99.80;;;;;;5045391;28;20201;-78
2021/05/04 12:32:49;;;;;;;2.13;1.60;;;17.20;99.50;;;;;;5040779;28;20219;-78
2021/05/04 12:35:15;;;;;;;9.03;1.60;;;17.20;99.90;;;;;;5048790;28;20179;-77
2021/05/04 12:37:42;;;;;;;2.30;1.63;;;17.10;98.40;;;;;;5043325;28;20235;-78
2021/05/04 12:40:20;;;;;;;4.03;1.50;;;17.00;99.30;;;;;;5053465;28;20223;-78
2021/05/04 12:42:50;;;;;;;2.87;1.33;;;17.10;99.00;;;;;;5039854;28;20694;-78
2021/05/04 12:45:16;;;;;;;3.90;1.37;;;17.10;98.90;;;;;;5042800;28;20217;-78
2021/05/04 12:47:53;;;;;;;2.70;1.20;;;17.10;98.80;;;;;;5052641;28;20177;-78
2021/05/04 12:50:30;;;;;;;3.43;1.57;;;17.10;99.00;;;;;;5047782;28;20209;-77
2021/05/04 12:53:00;;;;;;;5.50;1.30;;;17.10;99.10;;;;;;5043918;28;20167;-77
2021/05/04 12:55:26;;;;;;;4.00;1.30;;;17.10;98.20;;;;;;5041532;28;20201;-78
2021/05/04 12:58:08;;;;;;;2.83;1.37;;;17.00;98.30;;;;;;5042038;28;20182;-77
2021/05/04 13:00:34;;;;;;;6.20;1.37;;;17.00;98.70;;;;;;5041526;28;20207;-78
2021/05/04 13:03:04;;;;;;;10.83;1.43;;;16.90;98.90;;;;;;5051118;28;20232;-77
2021/05/04 13:05:31;;;;;;;1.70;1.20;;;16.80;97.50;;;;;;5047659;28;20186;-78
2021/05/04 13:08:04;;;;;;;22.27;1.83;;;16.70;98.20;;;;;;5049596;28;20724;-78
2021/05/04 13:32:17;;;;;;;4.73;1.50;;;16.80;98.40;;;;;;5040949;28;20180;-78
2021/05/04 13:35:07;;;;;;;4.30;1.30;;;16.90;98.40;;;;;;5045416;28;20168;-77
2021/05/04 13:37:39;;;;;;;2.60;1.30;;;16.90;97.60;;;;;;5039892;28;21020;-78
2021/05/04 13:48:10;;;;;;;1.70;1.10;;;17.10;97.70;;;;;;5044339;28;20170;-77
2021/05/04 13:50:36;;;;;;;4.33;1.50;;;17.10;97.30;;;;;;5039516;28;20207;-78
2021/05/04 13:53:02;;;;;;;4.20;1.27;;;17.10;97.30;;;;;;5048077;28;20273;-78
2021/05/04 13:55:28;;;;;;;3.07;1.23;;;17.20;97.50;;;;;;5041671;28;20209;-79
2021/05/04 13:57:56;;;;;;;4.03;1.40;;;17.20;96.80;;;;;;5041027;28;20228;-78
2021/05/04 14:00:49;;;;;;;2.03;1.33;;;17.30;97.80;;;;;;5049414;28;20200;-79
2021/05/04 14:03:15;;;;;;;4.57;1.43;;;17.30;96.80;;;;;;5044189;28;20549;-79
2021/05/04 14:27:21;;;;;;;2.93;1.20;;;17.10;97.40;;;;;;5049301;28;20652;-78
2021/05/04 14:29:47;;;;;;;4.17;1.30;;;17.10;97.40;;;;;;5039884;28;20220;-77
2021/05/04 14:32:12;;;;;;;2.70;1.10;;;17.20;96.20;;;;;;5048455;28;20674;-78